M I D A S
Marine Information and Data Acquisition System
Tripno 1780 of the Zeeleeuw from 2009-09-18 06:49:10 to 2009-09-18 15:24:44
Back to CruiseResearch ActivitiesStationsMapUnderway DataData graphs

EquipmentUnitsComments
TimeDGPSUTC
LatitudeDGPSDM.mWGS84
LongitudeDGPSDM.mWGS84
SpeedMeteo Stationm/sRelative wind speed
DirectionMeteo StationdegRelative wind direction
TemperatureMeteo Stationdeg CelciusAir temperature
PressureMeteo StationPaAtmospheric pressure
HumidityMeteo Station%Relative humidity
Missing or incorrect values are displayed as -999
Metereological data collected by the RV Zeeleeuw from 2009-09-18 06:34:36 to 2009-09-18 15:24:44
Time Latitude Longitude Speed Direction Temperature Pressure Humidity
2009-09-18 06:35 51°13.663 2°55.958 2.3 279 12.4 101880 40
2009-09-18 06:36 51°13.663 2°55.959 5 284 12.4 101890 40
2009-09-18 06:37 51°13.663 2°55.959 1.4 278 12.4 101880 41
2009-09-18 06:38 51°13.663 2°55.959 3.9 279 12.5 101890 40
2009-09-18 06:39 51°13.663 2°55.959 3.1 282 12.5 101880 41
2009-09-18 06:40 51°13.663 2°55.959 0.9 282 12.5 101880 39
2009-09-18 06:41 51°13.663 2°55.959 1.9 282 12.5 101880 41
2009-09-18 06:42 51°13.662 2°55.96 3.5 284 12.5 101880 38
2009-09-18 06:43 51°13.661 2°55.96 0.1 282 12.6 101890 38
2009-09-18 06:44 51°13.664 2°55.948 0.1 282 12.6 101880 39
2009-09-18 06:45 51°13.68 2°55.875 2.3 280 12.6 101890 39
2009-09-18 06:46 51°13.695 2°55.783 0.2 283 12.6 101880 40
2009-09-18 06:47 51°13.7 2°55.748 3.5 280 12.6 101880 38
2009-09-18 06:48 51°13.696 2°55.741 3 8 12.7 101880 39
2009-09-18 06:49 51°13.718 2°55.719 4.3 18 12.7 101880 38
2009-09-18 06:50 51°13.805 2°55.65 4.2 280 12.6 101880 39
2009-09-18 06:51 51°13.921 2°55.564 5.7 359 12.6 101880 37
2009-09-18 06:52 51°14.045 2°55.471 4.6 357 12.7 101870 39
2009-09-18 06:53 51°14.17 2°55.365 5.7 358 12.7 101880 39
2009-09-18 06:54 51°14.277 2°55.211 4.4 9 12.7 101880 39
2009-09-18 06:55 51°14.37 2°54.989 5.4 7 12.9 101870 39
2009-09-18 06:56 51°14.49 2°54.77 7.5 359 13 101880 41
2009-09-18 06:57 51°14.616 2°54.551 6.3 8 13.2 101870 39
2009-09-18 06:58 51°14.717 2°54.289 5.5 14 13.2 101880 40
2009-09-18 06:59 51°14.812 2°54.024 8.1 12 13.4 101880 40
2009-09-18 07:00 51°14.907 2°53.758 6.6 14 13.5 101880 38
2009-09-18 07:01 51°15.004 2°53.498 9.3 11 13.6 101870 38
2009-09-18 07:02 51°15.098 2°53.233 8 18 13.8 101870 38
2009-09-18 07:03 51°15.192 2°52.966 7.1 16 13.8 101870 38
2009-09-18 07:04 51°15.287 2°52.7 6.8 19 13.9 101870 39
2009-09-18 07:05 51°15.384 2°52.434 6.6 8 14.1 101870 39
2009-09-18 07:06 51°15.477 2°52.163 8 17 14.2 101870 38
2009-09-18 07:07 51°15.571 2°51.887 6.3 22 14.1 101870 38
2009-09-18 07:08 51°15.667 2°51.62 7.9 19 14.2 101860 38
2009-09-18 07:09 51°15.763 2°51.355 7.7 16 14.3 101870 38
2009-09-18 07:10 51°15.859 2°51.089 7.9 19 14.4 101870 38
2009-09-18 07:11 51°15.959 2°50.834 7.5 15 14.5 101870 40
2009-09-18 07:12 51°16.069 2°50.595 6.7 19 14.6 101870 40
2009-09-18 07:13 51°16.188 2°50.377 9.1 10 14.6 101860 39
2009-09-18 07:14 51°16.317 2°50.176 9.6 9 14.6 101870 40
2009-09-18 07:15 51°16.458 2°50.003 9 7 14.7 101860 39
2009-09-18 07:16 51°16.605 2°49.845 10.1 3 14.7 101860 41
2009-09-18 07:17 51°16.755 2°49.693 9.1 7 14.6 101850 40
2009-09-18 07:18 51°16.9 2°49.555 11.4 5 14.6 101850 41
2009-09-18 07:19 51°17.046 2°49.443 9.7 4 14.6 101850 40
2009-09-18 07:20 51°17.193 2°49.319 8.9 4 14.6 101850 40
2009-09-18 07:21 51°17.342 2°49.193 9.4 3 14.5 101860 41
2009-09-18 07:22 51°17.492 2°49.063 9.2 4 14.5 101850 40
2009-09-18 07:23 51°17.641 2°48.93 10.8 2 14.4 101850 40
2009-09-18 07:24 51°17.795 2°48.803 9.7 3 14.4 101840 40
2009-09-18 07:25 51°17.951 2°48.677 12.2 1 14.6 101850 40
2009-09-18 07:26 51°18.105 2°48.544 10.7 7 14.5 101840 40
2009-09-18 07:27 51°18.261 2°48.401 10.7 4 14.5 101850 39
2009-09-18 07:28 51°18.418 2°48.26 9.9 7 14.6 101850 40
2009-09-18 07:29 51°18.572 2°48.109 11.3 5 14.6 101850 39
2009-09-18 07:30 51°18.721 2°47.945 9.6 5 14.5 101840 40
2009-09-18 07:31 51°18.868 2°47.779 9.1 5 14.6 101840 39
2009-09-18 07:32 51°19.014 2°47.608 9.9 3 14.6 101850 40
2009-09-18 07:33 51°19.159 2°47.438 11.2 3 14.6 101840 41
2009-09-18 07:34 51°19.304 2°47.269 9 3 14.6 101850 40
2009-09-18 07:35 51°19.45 2°47.1 9.6 8 14.6 101860 40
2009-09-18 07:36 51°19.596 2°46.931 8.4 6 14.6 101860 39
2009-09-18 07:37 51°19.742 2°46.764 8.1 5 14.7 101860 40
2009-09-18 07:38 51°19.891 2°46.599 10.6 8 14.7 101850 40
2009-09-18 07:39 51°20.041 2°46.437 10 4 14.7 101870 40
2009-09-18 07:40 51°20.198 2°46.296 10.3 3 14.8 101850 40
2009-09-18 07:41 51°20.356 2°46.157 8.6 2 14.7 101860 39
2009-09-18 07:42 51°20.515 2°46.016 8.3 5 14.7 101860 39
2009-09-18 07:43 51°20.672 2°45.877 9.7 5 14.7 101850 39
2009-09-18 07:44 51°20.828 2°45.739 9.3 3 14.7 101860 39
2009-09-18 07:45 51°20.988 2°45.598 9.3 4 14.8 101850 40
2009-09-18 07:46 51°21.145 2°45.455 10.6 5 14.9 101870 39
2009-09-18 07:47 51°21.3 2°45.318 11.1 2 15 101850 39
2009-09-18 07:48 51°21.459 2°45.177 10.3 1 15 101860 39
2009-09-18 07:49 51°21.615 2°45.041 10.7 360 15 101850 40
2009-09-18 07:50 51°21.772 2°44.907 10.3 6 15 101850 39
2009-09-18 07:51 51°21.925 2°44.771 8.4 357 15 101860 39
2009-09-18 07:52 51°22.074 2°44.637 11.8 8 15 101850 39
2009-09-18 07:53 51°22.231 2°44.497 10.8 4 15.1 101850 40
2009-09-18 07:54 51°22.386 2°44.361 11.1 5 15.1 101850 38
2009-09-18 07:55 51°22.537 2°44.223 9.6 7 15 101850 38
2009-09-18 07:56 51°22.691 2°44.087 10.9 4 15.1 101850 39
2009-09-18 07:57 51°22.843 2°43.944 11.2 6 15 101850 38
2009-09-18 07:58 51°22.995 2°43.803 10.7 2 15.1 101850 39
2009-09-18 07:59 51°23.151 2°43.658 9.8 3 15.2 101850 38
2009-09-18 08:00 51°23.305 2°43.516 7.8 2 15.1 101850 39
2009-09-18 08:01 51°23.459 2°43.382 8.9 4 15.2 101860 39
2009-09-18 08:02 51°23.62 2°43.243 11.4 4 15.3 101860 40
2009-09-18 08:03 51°23.774 2°43.104 10.5 4 15.1 101850 38
2009-09-18 08:04 51°23.935 2°42.965 8.4 2 15.1 101850 39
2009-09-18 08:05 51°24.087 2°42.833 10.5 6 15.2 101850 39
2009-09-18 08:06 51°24.251 2°42.713 11 3 15.3 101850 39
2009-09-18 08:07 51°24.413 2°42.596 12.8 2 15.3 101860 40
2009-09-18 08:08 51°24.574 2°42.498 12.2 1 15.2 101850 39
2009-09-18 08:09 51°24.739 2°42.428 13.2 357 15.2 101850 39
2009-09-18 08:10 51°24.903 2°42.349 11.7 357 15.2 101840 38
2009-09-18 08:11 51°25.067 2°42.271 11.1 1 15.2 101850 38
2009-09-18 08:12 51°25.231 2°42.192 10.2 360 15.2 101860 39
2009-09-18 08:13 51°25.392 2°42.09 11.5 1 15.2 101850 38
2009-09-18 08:14 51°25.546 2°41.937 9.5 7 15.1 101860 38
2009-09-18 08:15 51°25.698 2°41.776 9.3 6 15.2 101870 38
2009-09-18 08:16 51°25.852 2°41.625 10.3 4 15.3 101870 38
2009-09-18 08:17 51°26.011 2°41.489 9.7 1 15.3 101870 38
2009-09-18 08:18 51°26.167 2°41.351 10.7 4 15.3 101850 38
2009-09-18 08:19 51°26.323 2°41.213 9 2 15.2 101870 37
2009-09-18 08:20 51°26.48 2°41.078 11.9 2 15.3 101870 37
2009-09-18 08:21 51°26.636 2°40.949 10.8 2 15.4 101870 37
2009-09-18 08:22 51°26.794 2°40.824 10.4 4 15.3 101860 38
2009-09-18 08:23 51°26.952 2°40.7 11.5 -999 15.4 101870 39
2009-09-18 08:24 51°27.108 2°40.577 11.3 359 15.4 101870 38
2009-09-18 08:25 51°27.265 2°40.452 9.7 3 15.4 101870 38
2009-09-18 08:26 51°27.422 2°40.332 8.7 5 15.3 101860 37
2009-09-18 08:27 51°27.58 2°40.212 11.8 354 15.4 101870 37
2009-09-18 08:28 51°27.733 2°40.094 12.2 358 15.5 101860 39
2009-09-18 08:29 51°27.896 2°40.024 13 356 15.4 101870 38
2009-09-18 08:30 51°28.078 2°40.071 14 349 15.5 101850 39
2009-09-18 08:31 51°28.25 2°40.154 14.2 349 15.5 101860 39
2009-09-18 08:32 51°28.395 2°40.235 14.4 278 15.4 101850 36
2009-09-18 08:33 51°28.534 2°40.338 14.2 279 15.4 101860 38
2009-09-18 08:34 51°28.675 2°40.443 11.4 280 15.5 101860 38
2009-09-18 08:35 51°28.814 2°40.549 13.3 285 15.4 101850 38
2009-09-18 08:36 51°28.911 2°40.734 15.9 282 15.5 101890 38
2009-09-18 08:37 51°28.99 2°40.948 14.2 279 15.5 101880 38
2009-09-18 08:38 51°29.077 2°41.157 15.8 278 15.6 101880 38
2009-09-18 08:39 51°29.167 2°41.362 13.8 285 15.6 101880 38
2009-09-18 08:40 51°29.251 2°41.576 12.9 283 15.5 101870 36
2009-09-18 08:41 51°29.329 2°41.796 13.8 280 15.7 101880 38
2009-09-18 08:42 51°29.406 2°42.015 14.7 286 15.6 101860 37
2009-09-18 08:43 51°29.489 2°42.234 13.7 286 15.6 101870 37
2009-09-18 08:44 51°29.572 2°42.454 14.4 281 15.7 101870 39
2009-09-18 08:45 51°29.654 2°42.678 13.6 278 15.7 101880 38
2009-09-18 08:46 51°29.738 2°42.896 14.4 281 15.6 101880 37
2009-09-18 08:47 51°29.821 2°43.116 14.8 282 15.6 101860 37
2009-09-18 08:48 51°29.903 2°43.334 13.7 285 15.6 101870 37
2009-09-18 08:49 51°29.985 2°43.556 13.4 278 15.6 101860 38
2009-09-18 08:50 51°30.068 2°43.777 13.1 283 15.6 101870 38
2009-09-18 08:51 51°30.15 2°43.996 14.2 280 15.6 101880 37
2009-09-18 08:52 51°30.234 2°44.216 14.3 286 15.6 101870 37
2009-09-18 08:53 51°30.316 2°44.44 13.7 283 15.7 101890 38
2009-09-18 08:54 51°30.4 2°44.662 12.8 284 15.6 101870 37
2009-09-18 08:55 51°30.483 2°44.884 11.8 280 15.7 101880 38
2009-09-18 08:56 51°30.564 2°45.105 14.7 281 15.8 101890 38
2009-09-18 08:57 51°30.645 2°45.328 13.7 286 15.7 101870 38
2009-09-18 08:58 51°30.729 2°45.547 14.7 284 15.7 101890 38
2009-09-18 08:59 51°30.815 2°45.767 14.6 285 15.6 101880 37
2009-09-18 09:00 51°30.898 2°45.989 14.4 281 15.7 101880 37
2009-09-18 09:01 51°30.982 2°46.209 11.9 278 15.7 101890 38
2009-09-18 09:02 51°31.068 2°46.431 12.9 281 15.7 101880 38
2009-09-18 09:03 51°31.152 2°46.656 14 278 15.7 101880 37
2009-09-18 09:04 51°31.236 2°46.878 14.8 283 15.7 101870 36
2009-09-18 09:05 51°31.319 2°47.103 13.4 278 15.7 101880 38
2009-09-18 09:06 51°31.402 2°47.326 14.2 278 15.9 101890 39
2009-09-18 09:07 51°31.485 2°47.551 13.9 278 15.7 101880 37
2009-09-18 09:08 51°31.567 2°47.777 13.3 279 15.7 101880 38
2009-09-18 09:09 51°31.649 2°48.002 13.8 284 15.7 101890 37
2009-09-18 09:10 51°31.734 2°48.225 14 282 15.7 101880 37
2009-09-18 09:11 51°31.818 2°48.449 13.1 277 15.6 101870 37
2009-09-18 09:12 51°31.902 2°48.673 15.1 281 15.7 101900 37
2009-09-18 09:13 51°31.984 2°48.901 13.6 284 15.7 101890 37
2009-09-18 09:14 51°32.066 2°49.13 12.7 285 15.7 101890 39
2009-09-18 09:15 51°32.154 2°49.35 13.8 281 15.8 101900 38
2009-09-18 09:16 51°32.245 2°49.569 14.8 283 15.7 101890 37
2009-09-18 09:17 51°32.332 2°49.791 11.4 281 15.8 101880 38
2009-09-18 09:18 51°32.419 2°50.012 12.6 281 15.8 101880 37
2009-09-18 09:19 51°32.505 2°50.233 13.6 283 15.7 101870 38
2009-09-18 09:20 51°32.593 2°50.452 13 282 15.7 101900 37
2009-09-18 09:21 51°32.681 2°50.671 12.5 279 15.7 101880 37
2009-09-18 09:22 51°32.769 2°50.891 13.4 284 15.7 101890 37
2009-09-18 09:23 51°32.856 2°51.113 13.8 278 15.7 101880 38
2009-09-18 09:24 51°32.943 2°51.338 12.8 281 15.7 101890 38
2009-09-18 09:25 51°33.026 2°51.564 12.7 284 15.7 101890 37
2009-09-18 09:26 51°33.113 2°51.788 13.1 283 15.8 101900 39
2009-09-18 09:27 51°33.199 2°52.014 14.1 282 15.7 101890 38
2009-09-18 09:28 51°33.286 2°52.239 13.4 282 15.6 101890 38
2009-09-18 09:29 51°33.373 2°52.469 14 281 15.7 101880 38
2009-09-18 09:30 51°33.461 2°52.694 13.3 283 15.7 101880 37
2009-09-18 09:31 51°33.546 2°52.922 13.8 282 15.7 101890 37
2009-09-18 09:32 51°33.634 2°53.152 14.7 281 15.7 101890 38
2009-09-18 09:33 51°33.722 2°53.382 13 281 15.7 101880 38
2009-09-18 09:34 51°33.804 2°53.613 12.7 286 15.6 101870 37
2009-09-18 09:35 51°33.886 2°53.847 11.7 277 15.8 101900 38
2009-09-18 09:36 51°33.967 2°54.084 15.5 282 15.7 101880 37
2009-09-18 09:37 51°34.046 2°54.309 13.4 282 15.6 101890 37
2009-09-18 09:38 51°34.124 2°54.536 15.3 281 15.8 101880 38
2009-09-18 09:39 51°34.204 2°54.765 14.2 285 15.7 101890 38
2009-09-18 09:40 51°34.283 2°54.992 15.2 281 15.8 101890 37
2009-09-18 09:41 51°34.364 2°55.218 14.5 278 15.7 101890 38
2009-09-18 09:42 51°34.443 2°55.448 13.1 281 15.6 101890 37
2009-09-18 09:43 51°34.521 2°55.677 11.5 282 15.7 101890 37
2009-09-18 09:44 51°34.6 2°55.908 12.4 276 15.7 101880 37
2009-09-18 09:45 51°34.68 2°56.138 13.7 280 15.7 101880 38
2009-09-18 09:46 51°34.76 2°56.368 14.2 278 15.7 101880 38
2009-09-18 09:47 51°34.839 2°56.6 13.6 285 15.7 101870 38
2009-09-18 09:48 51°34.92 2°56.83 11.8 277 15.8 101880 38
2009-09-18 09:49 51°35 2°57.06 12.5 279 15.8 101880 38
2009-09-18 09:50 51°35.081 2°57.288 12 280 15.8 101880 38
2009-09-18 09:51 51°35.161 2°57.519 12.1 284 15.7 101880 38
2009-09-18 09:52 51°35.242 2°57.755 13 280 15.8 101880 38
2009-09-18 09:53 51°35.324 2°57.987 13.8 284 15.8 101870 38
2009-09-18 09:54 51°35.407 2°58.219 10 287 15.8 101880 38
2009-09-18 09:55 51°35.489 2°58.453 12.9 282 15.8 101870 38
2009-09-18 09:56 51°35.572 2°58.688 13.4 280 15.8 101880 39
2009-09-18 09:57 51°35.652 2°58.922 12.5 276 15.8 101870 37
2009-09-18 09:58 51°35.685 2°59.176 10.5 281 15.8 101870 38
2009-09-18 09:59 51°35.593 2°59.413 11.9 285 15.8 101860 37
2009-09-18 10:00 51°35.464 2°59.623 10.5 278 15.8 101860 39
2009-09-18 10:01 51°35.331 2°59.831 13.1 276 15.8 101870 39
2009-09-18 10:02 51°35.195 3°0.044 12.4 281 15.9 101870 38
2009-09-18 10:03 51°35.052 3°0.253 10.4 279 15.8 101860 38
2009-09-18 10:04 51°34.888 3°0.433 10 282 15.8 101870 38
2009-09-18 10:05 51°34.698 3°0.534 8.7 279 15.8 101860 38
2009-09-18 10:06 51°34.497 3°0.504 7.3 281 15.9 101880 39
2009-09-18 10:07 51°34.303 3°0.398 8 282 16 101880 39
2009-09-18 10:08 51°34.109 3°0.289 8.6 279 16 101880 39
2009-09-18 10:09 51°33.913 3°0.189 7.5 278 16.1 101870 38
2009-09-18 10:10 51°33.721 3°0.072 7.9 278 16.2 101870 40
2009-09-18 10:11 51°33.529 2°59.96 7.6 282 16.2 101880 39
2009-09-18 10:12 51°33.336 2°59.839 6.3 284 16.3 101870 38
2009-09-18 10:13 51°33.151 2°59.707 5.6 285 16.3 101870 38
2009-09-18 10:14 51°32.971 2°59.583 6.8 283 16.3 101880 38
2009-09-18 10:15 51°32.799 2°59.442 6 277 16.3 101880 37
2009-09-18 10:16 51°32.637 2°59.279 4.1 280 16.4 101880 39
2009-09-18 10:17 51°32.494 2°59.076 3.4 284 16.4 101880 38
2009-09-18 10:18 51°32.364 2°58.855 2.3 276 16.4 101880 39
2009-09-18 10:19 51°32.23 2°58.638 1.4 282 16.4 101880 39
2009-09-18 10:20 51°32.095 2°58.422 1.9 279 16.5 101880 39
2009-09-18 10:21 51°31.962 2°58.209 2.8 284 16.7 101870 38
2009-09-18 10:22 51°31.828 2°57.998 2.4 277 16.6 101870 38
2009-09-18 10:23 51°31.699 2°57.783 2.9 282 16.6 101870 40
2009-09-18 10:24 51°31.572 2°57.569 2.9 278 16.6 101870 38
2009-09-18 10:25 51°31.444 2°57.353 3.1 280 16.6 101860 38
2009-09-18 10:26 51°31.316 2°57.143 2.3 87 16.6 101850 37
2009-09-18 10:27 51°31.208 2°56.907 2.1 78 16.6 101860 37
2009-09-18 10:28 51°31.137 2°56.645 0.2 28 16.6 101860 41
2009-09-18 10:29 51°31.092 2°56.369 1.5 74 16.6 101850 38
2009-09-18 10:30 51°31.044 2°56.094 2 42 16.6 101850 38
2009-09-18 10:31 51°30.993 2°55.819 0.1 30 16.5 101860 40
2009-09-18 10:32 51°30.941 2°55.545 -999 38 16.3 101860 39
2009-09-18 10:33 51°30.887 2°55.277 0.8 81 16.3 101850 40
2009-09-18 10:34 51°30.833 2°55.008 0.1 42 16.2 101860 39
2009-09-18 10:35 51°30.78 2°54.741 1.7 82 16.1 101850 39
2009-09-18 10:36 51°30.728 2°54.474 1.5 83 16.1 101850 41
2009-09-18 10:37 51°30.677 2°54.207 -999 79 16 101850 40
2009-09-18 10:38 51°30.626 2°53.941 1.1 43 16 101840 41
2009-09-18 10:39 51°30.573 2°53.676 0.7 41 16 101840 39
2009-09-18 10:40 51°30.523 2°53.412 0.5 82 16.1 101850 40
2009-09-18 10:41 51°30.472 2°53.149 0.9 -999 16.3 101840 41
2009-09-18 10:42 51°30.421 2°52.887 2.6 39 16.5 101840 43
2009-09-18 10:43 51°30.369 2°52.625 1.7 39 16.5 101850 41
2009-09-18 10:44 51°30.32 2°52.363 1.9 42 16.3 101850 41
2009-09-18 10:45 51°30.271 2°52.101 0.5 82 16.2 101840 39
2009-09-18 10:46 51°30.224 2°51.84 1.2 80 16.2 101840 39
2009-09-18 10:47 51°30.175 2°51.581 -999 43 16.3 101850 40
2009-09-18 10:48 51°30.126 2°51.319 -999 40 16.2 101840 40
2009-09-18 10:49 51°30.071 2°51.059 0.1 79 16.3 101840 41
2009-09-18 10:50 51°30.01 2°50.805 1.6 44 16.3 101840 41
2009-09-18 10:51 51°29.952 2°50.554 0.3 79 16.3 101840 41
2009-09-18 10:52 51°29.892 2°50.301 0.1 78 16.3 101840 40
2009-09-18 10:53 51°29.835 2°50.052 -999 79 16.2 101830 40
2009-09-18 10:54 51°29.778 2°49.802 -999 38 16.2 101830 41
2009-09-18 10:55 51°29.72 2°49.55 -999 35 16.3 101830 41
2009-09-18 10:56 51°29.666 2°49.299 2.3 74 16.3 101830 38
2009-09-18 10:57 51°29.611 2°49.048 1.4 85 16.2 101820 42
2009-09-18 10:58 51°29.557 2°48.799 1.4 37 16.4 101820 42
2009-09-18 10:59 51°29.503 2°48.55 1.9 81 16.6 101820 42
2009-09-18 11:00 51°29.451 2°48.302 1.5 78 16.6 101820 42
2009-09-18 11:01 51°29.396 2°48.052 1.6 32 16.5 101820 39
2009-09-18 11:02 51°29.337 2°47.808 1.3 76 16.4 101810 42
2009-09-18 11:03 51°29.262 2°47.579 3 76 16.3 101810 39
2009-09-18 11:04 51°29.185 2°47.348 2 75 16.3 101810 40
2009-09-18 11:05 51°29.108 2°47.118 2.6 74 16.5 101810 40
2009-09-18 11:06 51°29.033 2°46.887 1.3 79 16.5 101810 41
2009-09-18 11:07 51°28.957 2°46.658 1.5 38 16.5 101810 40
2009-09-18 11:08 51°28.884 2°46.426 2.1 76 16.5 101810 39
2009-09-18 11:09 51°28.809 2°46.194 1.6 80 16.5 101800 41
2009-09-18 11:10 51°28.736 2°45.962 2.4 73 16.6 101810 41
2009-09-18 11:11 51°28.662 2°45.732 2.6 82 16.7 101800 42
2009-09-18 11:12 51°28.589 2°45.503 1.6 76 16.8 101800 38
2009-09-18 11:13 51°28.518 2°45.274 1.5 74 16.8 101800 39
2009-09-18 11:14 51°28.451 2°45.04 0.7 78 16.8 101790 41
2009-09-18 11:15 51°28.383 2°44.804 1.7 34 16.9 101790 39
2009-09-18 11:16 51°28.32 2°44.568 1.9 81 17 101790 41
2009-09-18 11:17 51°28.258 2°44.334 1.8 77 16.9 101780 42
2009-09-18 11:18 51°28.196 2°44.1 2 81 16.8 101790 40
2009-09-18 11:19 51°28.116 2°43.876 1.7 83 16.7 101790 39
2009-09-18 11:20 51°28.013 2°43.668 2.5 76 16.5 101780 41
2009-09-18 11:21 51°27.875 2°43.517 4.7 279 16.6 101780 40
2009-09-18 11:22 51°27.728 2°43.396 4.6 282 16.7 101770 40
2009-09-18 11:23 51°27.58 2°43.265 4.5 284 16.8 101780 41
2009-09-18 11:24 51°27.434 2°43.134 3.4 280 16.7 101770 39
2009-09-18 11:25 51°27.291 2°42.997 3.8 286 16.8 101770 41
2009-09-18 11:26 51°27.146 2°42.874 5.9 278 16.7 101770 43
2009-09-18 11:27 51°26.981 2°42.898 9.5 279 16.7 101760 39
2009-09-18 11:28 51°26.83 2°43.038 9.2 280 16.8 101740 40
2009-09-18 11:29 51°26.682 2°43.194 11.8 284 16.8 101740 40
2009-09-18 11:30 51°26.548 2°43.389 11.9 281 16.8 101730 40
2009-09-18 11:31 51°26.487 2°43.666 14 280 16.7 101730 39
2009-09-18 11:32 51°26.529 2°43.975 13.6 279 16.6 101740 40
2009-09-18 11:33 51°26.633 2°44.261 14.7 279 16.6 101720 41
2009-09-18 11:34 51°26.748 2°44.538 13.7 282 16.4 101720 39
2009-09-18 11:36 51°26.878 2°44.853 13.8 328 16.4 101730 40
2009-09-18 11:37 51°26.987 2°45.142 13.1 285 16.4 101740 40
2009-09-18 11:38 51°27.09 2°45.432 15.1 283 16.3 101730 39
2009-09-18 11:39 51°27.192 2°45.716 13.6 329 16.3 101730 41
2009-09-18 11:40 51°27.296 2°46.009 13.3 285 16.4 101730 39
2009-09-18 11:41 51°27.398 2°46.297 13.9 329 16.3 101720 40
2009-09-18 11:42 51°27.501 2°46.59 14.8 327 16.4 101730 41
2009-09-18 11:43 51°27.606 2°46.879 14.7 280 16.3 101720 40
2009-09-18 11:44 51°27.708 2°47.17 15.5 -999 16.4 101730 40
2009-09-18 11:45 51°27.804 2°47.466 12.7 326 16.4 101710 40
2009-09-18 11:46 51°27.901 2°47.765 11.3 329 16.4 101740 40
2009-09-18 11:47 51°27.998 2°48.065 14.4 -999 16.4 101720 40
2009-09-18 11:48 51°28.095 2°48.36 13.8 -999 16.4 101730 39
2009-09-18 11:49 51°28.195 2°48.657 14.2 282 16.4 101750 40
2009-09-18 11:50 51°28.298 2°48.955 13.5 326 16.5 101730 40
2009-09-18 11:51 51°28.398 2°49.251 14.4 326 16.6 101740 41
2009-09-18 11:52 51°28.498 2°49.545 13.5 328 16.4 101730 39
2009-09-18 11:53 51°28.6 2°49.838 13.7 329 16.5 101740 41
2009-09-18 11:54 51°28.703 2°50.133 13.7 329 16.4 101730 40
2009-09-18 11:55 51°28.803 2°50.43 12.8 330 16.5 101710 40
2009-09-18 11:56 51°28.904 2°50.727 14.2 328 16.4 101730 39
2009-09-18 11:57 51°29.005 2°51.026 14.2 328 16.5 101740 41
2009-09-18 11:58 51°29.107 2°51.324 12.8 329 16.4 101720 40
2009-09-18 11:59 51°29.21 2°51.621 12.2 328 16.4 101730 40
2009-09-18 12:00 51°29.311 2°51.918 12.1 328 16.5 101720 41
2009-09-18 12:01 51°29.414 2°52.215 13.6 326 16.6 101710 41
2009-09-18 12:02 51°29.516 2°52.512 13.2 326 16.5 101710 41
2009-09-18 12:03 51°29.621 2°52.805 13 327 16.5 101720 40
2009-09-18 12:04 51°29.725 2°53.099 13.9 329 16.5 101710 39
2009-09-18 12:05 51°29.829 2°53.394 14.9 326 16.5 101710 39
2009-09-18 12:06 51°29.931 2°53.69 13.3 328 16.4 101700 39
2009-09-18 12:07 51°30.035 2°53.985 13.7 328 16.5 101710 41
2009-09-18 12:08 51°30.139 2°54.28 13.6 328 16.5 101700 40
2009-09-18 12:09 51°30.243 2°54.575 13.2 325 16.4 101700 39
2009-09-18 12:10 51°30.347 2°54.872 13.8 327 16.5 101710 40
2009-09-18 12:11 51°30.45 2°55.167 14 327 16.5 101710 40
2009-09-18 12:12 51°30.552 2°55.464 13.9 327 16.5 101700 39
2009-09-18 12:13 51°30.655 2°55.761 14.1 326 16.5 101710 40
2009-09-18 12:14 51°30.76 2°56.056 13.8 328 16.5 101700 41
2009-09-18 12:15 51°30.865 2°56.352 13 329 16.5 101700 40
2009-09-18 12:16 51°30.971 2°56.649 12.9 329 16.6 101710 40
2009-09-18 12:17 51°31.078 2°56.946 14 326 16.6 101700 40
2009-09-18 12:18 51°31.185 2°57.243 15.4 326 16.6 101720 41
2009-09-18 12:19 51°31.293 2°57.538 14.5 326 16.6 101710 40
2009-09-18 12:20 51°31.402 2°57.835 13.6 328 16.5 101700 40
2009-09-18 12:21 51°31.512 2°58.13 13.7 328 16.5 101700 41
2009-09-18 12:22 51°31.624 2°58.424 13.9 327 16.6 101690 40
2009-09-18 12:23 51°31.728 2°58.723 14.9 327 16.5 101700 40
2009-09-18 12:24 51°31.831 2°59.023 14.7 324 16.5 101700 40
2009-09-18 12:25 51°31.936 2°59.323 13.8 327 16.6 101700 40
2009-09-18 12:26 51°32.04 2°59.623 14.9 325 16.6 101700 40
2009-09-18 12:27 51°32.146 2°59.922 14.1 327 16.6 101700 40
2009-09-18 12:28 51°32.252 3°0.219 13.1 326 16.6 101710 39
2009-09-18 12:29 51°32.358 3°0.514 12.1 328 16.7 101710 40
2009-09-18 12:30 51°32.463 3°0.811 14.3 326 16.7 101710 40
2009-09-18 12:31 51°32.57 3°1.105 13.4 327 16.7 101710 40
2009-09-18 12:32 51°32.673 3°1.399 14.3 328 16.7 101700 40
2009-09-18 12:33 51°32.78 3°1.689 14.1 327 16.6 101710 40
2009-09-18 12:34 51°32.88 3°1.979 13.6 324 16.7 101700 40
2009-09-18 12:35 51°32.964 3°2.282 13.3 325 16.8 101700 40
2009-09-18 12:36 51°33.049 3°2.577 12.8 327 16.7 101700 39
2009-09-18 12:37 51°33.108 3°2.89 14 317 16.8 101690 39
2009-09-18 12:38 51°33.121 3°3.207 12.5 315 16.7 101700 39
2009-09-18 12:39 51°33.045 3°3.551 10 240 16.7 101700 39
2009-09-18 12:40 51°32.916 3°3.755 8 240 16.8 101710 40
2009-09-18 12:41 51°32.777 3°3.948 10 238 16.9 101710 41
2009-09-18 12:42 51°32.638 3°4.144 10.1 240 16.9 101710 41
2009-09-18 12:43 51°32.503 3°4.34 9.6 242 16.9 101710 40
2009-09-18 12:44 51°32.37 3°4.54 10.1 243 17 101700 39
2009-09-18 12:45 51°32.237 3°4.743 8.7 241 17 101700 40
2009-09-18 12:46 51°32.109 3°4.937 9.8 248 17.2 101700 41
2009-09-18 12:47 51°31.959 3°5.018 6.9 256 17.2 101710 40
2009-09-18 12:48 51°31.834 3°4.915 3.4 40 17.3 101720 40
2009-09-18 12:49 51°31.753 3°4.711 3.2 42 17.3 101720 38
2009-09-18 12:50 51°31.676 3°4.495 2.8 37 17.2 101710 39
2009-09-18 12:51 51°31.592 3°4.286 2.9 43 17.2 101720 40
2009-09-18 12:52 51°31.512 3°4.081 3.2 33 17.1 101720 40
2009-09-18 12:53 51°31.432 3°3.873 3.3 38 17.1 101710 40
2009-09-18 12:54 51°31.349 3°3.664 2.7 40 17.1 101710 40
2009-09-18 12:55 51°31.262 3°3.457 3.2 40 17 101710 40
2009-09-18 12:56 51°31.172 3°3.249 3.5 37 17 101720 41
2009-09-18 12:57 51°31.085 3°3.043 3 35 16.9 101720 40
2009-09-18 12:58 51°30.999 3°2.838 0.1 18 17 101710 41
2009-09-18 12:59 51°30.912 3°2.639 3.5 40 17.1 101710 42
2009-09-18 13:00 51°30.829 3°2.435 3.4 41 17 101710 42
2009-09-18 13:01 51°30.744 3°2.231 3 42 17 101710 40
2009-09-18 13:02 51°30.66 3°2.029 2 38 17 101710 42
2009-09-18 13:03 51°30.575 3°1.825 2.6 43 17 101710 40
2009-09-18 13:04 51°30.491 3°1.623 3.3 43 17.1 101710 41
2009-09-18 13:05 51°30.408 3°1.42 2.7 35 17 101710 42
2009-09-18 13:06 51°30.323 3°1.214 2.3 38 17.1 101710 43
2009-09-18 13:07 51°30.238 3°1.006 2.8 40 17.1 101710 41
2009-09-18 13:08 51°30.154 3°0.804 3.1 35 17 101710 40
2009-09-18 13:09 51°30.072 3°0.6 3.5 39 17 101700 40
2009-09-18 13:10 51°29.988 3°0.397 2.3 32 17 101710 40
2009-09-18 13:11 51°29.905 3°0.197 3.9 44 17 101710 41
2009-09-18 13:12 51°29.821 2°59.996 3.6 43 17.1 101700 41
2009-09-18 13:13 51°29.739 2°59.791 3.6 44 17.1 101700 41
2009-09-18 13:14 51°29.654 2°59.586 3.4 43 17 101700 41
2009-09-18 13:15 51°29.572 2°59.382 2.7 43 17 101690 41
2009-09-18 13:16 51°29.488 2°59.178 4.3 40 17 101700 41
2009-09-18 13:17 51°29.404 2°58.974 3.5 39 17 101700 43
2009-09-18 13:18 51°29.321 2°58.765 2.7 36 17 101700 41
2009-09-18 13:19 51°29.239 2°58.557 3.4 39 17 101700 41
2009-09-18 13:20 51°29.156 2°58.349 2.9 30 16.9 101690 41
2009-09-18 13:21 51°29.071 2°58.144 3.9 33 17 101700 40
2009-09-18 13:22 51°28.987 2°57.937 3.7 37 17 101690 41
2009-09-18 13:23 51°28.902 2°57.73 3 33 16.9 101690 42
2009-09-18 13:24 51°28.818 2°57.522 3.2 39 16.9 101690 41
2009-09-18 13:25 51°28.74 2°57.304 4 37 17 101690 41
2009-09-18 13:26 51°28.665 2°57.084 4.8 41 16.9 101690 41
2009-09-18 13:27 51°28.59 2°56.865 3.1 35 16.9 101680 40
2009-09-18 13:28 51°28.515 2°56.647 3.2 33 17 101680 42
2009-09-18 13:29 51°28.44 2°56.429 2.2 32 16.9 101690 43
2009-09-18 13:30 51°28.364 2°56.211 2.8 40 16.9 101680 43
2009-09-18 13:31 51°28.287 2°55.992 2.6 37 17 101680 43
2009-09-18 13:32 51°28.209 2°55.773 2.9 40 17.1 101680 41
2009-09-18 13:33 51°28.132 2°55.551 3 40 17 101680 41
2009-09-18 13:34 51°28.055 2°55.331 4.1 37 16.9 101680 43
2009-09-18 13:35 51°27.978 2°55.109 3.9 41 16.9 101670 41
2009-09-18 13:36 51°27.901 2°54.887 4.2 38 17 101680 41
2009-09-18 13:37 51°27.825 2°54.668 3.3 35 16.9 101680 41
2009-09-18 13:38 51°27.747 2°54.447 3.7 34 17 101680 43
2009-09-18 13:39 51°27.667 2°54.226 3.5 42 16.9 101680 42
2009-09-18 13:40 51°27.594 2°54.027 4.6 23 16.9 101670 41
2009-09-18 13:41 51°27.506 2°53.78 3.6 43 17 101670 41
2009-09-18 13:42 51°27.431 2°53.558 3.3 28 16.9 101670 42
2009-09-18 13:43 51°27.352 2°53.336 3.7 44 16.9 101670 43
2009-09-18 13:44 51°27.273 2°53.113 3 44 16.9 101670 40
2009-09-18 13:45 51°27.195 2°52.891 3.1 34 16.9 101660 42
2009-09-18 13:46 51°27.117 2°52.675 4.3 37 17 101670 41
2009-09-18 13:47 51°27.036 2°52.454 4.3 20 17 101660 43
2009-09-18 13:48 51°26.953 2°52.24 3.6 28 17 101660 43
2009-09-18 13:49 51°26.867 2°52.027 5.2 42 16.9 101660 42
2009-09-18 13:50 51°26.782 2°51.812 4.5 40 16.9 101660 41
2009-09-18 13:51 51°26.696 2°51.598 3.8 39 16.9 101660 43
2009-09-18 13:52 51°26.612 2°51.383 3.4 29 16.9 101660 42
2009-09-18 13:53 51°26.527 2°51.169 3.1 38 16.9 101660 40
2009-09-18 13:54 51°26.441 2°50.953 3.7 41 17 101660 41
2009-09-18 13:55 51°26.357 2°50.742 2.6 44 16.9 101660 41
2009-09-18 13:56 51°26.27 2°50.53 4.6 40 16.9 101650 43
2009-09-18 13:57 51°26.186 2°50.316 3.3 31 16.9 101650 42
2009-09-18 13:58 51°26.1 2°50.102 2.8 22 16.8 101650 43
2009-09-18 13:59 51°26.016 2°49.887 4 44 16.9 101650 41
2009-09-18 14:00 51°25.935 2°49.673 3.7 34 16.8 101650 40
2009-09-18 14:01 51°25.849 2°49.456 3.2 43 16.9 101650 40
2009-09-18 14:02 51°25.767 2°49.242 3.4 34 17 101640 41
2009-09-18 14:03 51°25.682 2°49.032 4.9 38 17 101640 44
2009-09-18 14:04 51°25.599 2°48.815 4.4 41 17 101640 41
2009-09-18 14:05 51°25.515 2°48.598 5 44 17 101650 44
2009-09-18 14:06 51°25.431 2°48.376 3.3 31 16.9 101640 43
2009-09-18 14:07 51°25.344 2°48.152 4.5 39 17 101640 42
2009-09-18 14:08 51°25.26 2°47.928 3.3 27 16.9 101640 41
2009-09-18 14:09 51°25.163 2°47.717 3.8 36 17 101630 41
2009-09-18 14:10 51°25.05 2°47.527 3.6 39 16.9 101630 43
2009-09-18 14:11 51°24.935 2°47.344 3.5 34 17 101620 44
2009-09-18 14:12 51°24.818 2°47.16 3 29 17.3 101620 44
2009-09-18 14:13 51°24.702 2°46.975 2 32 17.4 101620 42
2009-09-18 14:14 51°24.587 2°46.788 3 33 17.6 101620 40
2009-09-18 14:15 51°24.471 2°46.599 2.1 34 17.6 101620 40
2009-09-18 14:16 51°24.356 2°46.41 3.7 40 17.6 101630 42
2009-09-18 14:17 51°24.242 2°46.22 3.1 22 17.4 101630 39
2009-09-18 14:18 51°24.125 2°46.032 2.6 40 17.2 101620 42
2009-09-18 14:19 51°24.005 2°45.849 2.4 33 17.2 101620 43
2009-09-18 14:20 51°23.866 2°45.704 3.6 26 17.2 101620 43
2009-09-18 14:21 51°23.707 2°45.639 5.7 261 17.3 101610 43
2009-09-18 14:22 51°23.546 2°45.719 9.8 251 17.3 101600 43
2009-09-18 14:23 51°23.395 2°45.867 10.1 248 17.4 101600 43
2009-09-18 14:24 51°23.243 2°46.014 9.2 250 17.4 101590 42
2009-09-18 14:25 51°23.094 2°46.162 9.3 253 17.4 101590 41
2009-09-18 14:26 51°22.941 2°46.31 10.2 251 17.5 101590 42
2009-09-18 14:27 51°22.794 2°46.468 11.3 254 17.5 101580 42
2009-09-18 14:28 51°22.647 2°46.623 8.1 249 17.5 101590 43
2009-09-18 14:29 51°22.504 2°46.786 10.2 245 17.6 101590 41
2009-09-18 14:30 51°22.391 2°47.007 11.8 240 17.5 101570 42
2009-09-18 14:31 51°22.318 2°47.274 14.6 237 17.5 101550 42
2009-09-18 14:32 51°22.244 2°47.545 11.2 20 17.4 101560 42
2009-09-18 14:33 51°22.134 2°47.781 8.3 245 17.4 101570 41
2009-09-18 14:34 51°21.981 2°47.927 7.2 251 17.4 101580 42
2009-09-18 14:35 51°21.821 2°48.054 10 252 17.4 101590 42
2009-09-18 14:36 51°21.665 2°48.202 9.9 250 17.4 101580 42
2009-09-18 14:37 51°21.512 2°48.357 9.3 247 17.5 101580 42
2009-09-18 14:38 51°21.358 2°48.512 11.1 250 17.5 101570 42
2009-09-18 14:39 51°21.206 2°48.667 10.2 251 17.5 101560 42
2009-09-18 14:40 51°21.051 2°48.812 8.8 251 17.4 101570 42
2009-09-18 14:41 51°20.893 2°48.948 10.2 249 17.5 101570 42
2009-09-18 14:42 51°20.737 2°49.091 10.9 257 17.5 101560 42
2009-09-18 14:43 51°20.582 2°49.234 8.7 249 17.5 101560 43
2009-09-18 14:44 51°20.426 2°49.378 9.4 252 17.5 101560 43
2009-09-18 14:45 51°20.271 2°49.522 10.1 255 17.5 101560 42
2009-09-18 14:46 51°20.116 2°49.667 9.4 252 17.6 101560 42
2009-09-18 14:47 51°19.962 2°49.812 9.7 254 17.6 101550 42
2009-09-18 14:48 51°19.807 2°49.952 10.5 256 17.6 101560 42
2009-09-18 14:49 51°19.649 2°50.085 8.3 250 17.6 101560 42
2009-09-18 14:50 51°19.491 2°50.216 9.6 19 17.6 101550 43
2009-09-18 14:51 51°19.333 2°50.348 10.1 256 17.6 101550 43
2009-09-18 14:52 51°19.175 2°50.48 8 249 17.6 101550 43
2009-09-18 14:53 51°19.018 2°50.615 8.8 250 17.6 101560 43
2009-09-18 14:54 51°18.863 2°50.751 10.6 253 17.6 101550 42
2009-09-18 14:55 51°18.706 2°50.887 11 250 17.6 101550 43
2009-09-18 14:56 51°18.555 2°51.038 9.5 247 17.6 101540 43
2009-09-18 14:57 51°18.408 2°51.205 10.8 253 17.5 101540 42
2009-09-18 14:58 51°18.265 2°51.374 12.9 254 17.6 101530 43
2009-09-18 14:59 51°18.118 2°51.535 9.3 251 17.5 101540 43
2009-09-18 15:00 51°17.97 2°51.688 10.6 254 17.5 101540 44
2009-09-18 15:01 51°17.821 2°51.841 7.8 251 17.5 101530 43
2009-09-18 15:02 51°17.666 2°51.975 10.1 257 17.6 101540 44
2009-09-18 15:03 51°17.505 2°52.096 7.8 254 17.5 101540 44
2009-09-18 15:04 51°17.343 2°52.217 10.1 256 17.5 101540 43
2009-09-18 15:05 51°17.183 2°52.341 9.2 256 17.6 101540 42
2009-09-18 15:06 51°17.028 2°52.478 9.5 252 17.6 101540 42
2009-09-18 15:07 51°16.873 2°52.615 9.7 250 17.6 101540 43
2009-09-18 15:08 51°16.716 2°52.75 10.4 251 17.6 101530 44
2009-09-18 15:09 51°16.559 2°52.891 9.9 254 17.6 101530 43
2009-09-18 15:10 51°16.4 2°53.033 8.1 252 17.6 101540 42
2009-09-18 15:11 51°16.238 2°53.168 8.9 253 17.7 101530 43
2009-09-18 15:12 51°16.078 2°53.307 9.8 258 17.7 101540 43
2009-09-18 15:13 51°15.914 2°53.441 8.2 254 17.7 101530 42
2009-09-18 15:14 51°15.754 2°53.577 8.7 254 17.7 101530 44
2009-09-18 15:15 51°15.592 2°53.708 9.3 255 17.7 101520 44
2009-09-18 15:16 51°15.431 2°53.846 7.6 252 17.7 101520 44
2009-09-18 15:17 51°15.272 2°53.985 10.2 253 17.7 101520 43
2009-09-18 15:18 51°15.116 2°54.127 10 253 17.7 101520 43
2009-09-18 15:19 51°14.961 2°54.27 10.1 256 17.7 101520 44
2009-09-18 15:20 51°14.803 2°54.408 8.7 254 17.7 101510 43
2009-09-18 15:21 51°14.656 2°54.575 8.4 22 17.7 101510 41
2009-09-18 15:22 51°14.516 2°54.758 8.4 21 17.7 101510 43
2009-09-18 15:23 51°14.391 2°54.964 11.9 24 17.7 101500 44
2009-09-18 15:24 51°14.285 2°55.192 10.8 28 17.6 101500 44